createdAt,value
2022-11-13T00:01:15.569Z,1.80
2022-11-13T00:03:42.396Z,1.79
2022-11-13T00:06:10.772Z,1.71
2022-11-13T00:08:37.476Z,1.64
2022-11-13T00:11:06.457Z,1.61
2022-11-13T00:13:34.147Z,1.54
2022-11-13T00:16:05.826Z,1.65
2022-11-13T00:18:35.197Z,1.58
2022-11-13T00:21:11.098Z,1.61
2022-11-13T00:23:38.002Z,1.56
2022-11-13T00:26:10.284Z,1.46
2022-11-13T00:28:37.166Z,1.52
2022-11-13T00:31:04.825Z,1.54
2022-11-13T00:34:01.848Z,1.50
2022-11-13T00:36:26.026Z,1.51
2022-11-13T00:38:53.667Z,1.53
2022-11-13T00:41:20.426Z,1.64
2022-11-13T00:43:47.126Z,1.64
2022-11-13T00:46:14.029Z,1.61
2022-11-13T00:48:40.651Z,1.73
2022-11-13T00:51:07.671Z,1.64
2022-11-13T00:53:34.347Z,1.68
2022-11-13T00:56:01.156Z,1.62
2022-11-13T00:58:28.256Z,1.69
2022-11-13T01:00:55.505Z,1.69
2022-11-13T01:03:22.371Z,1.69
2022-11-13T01:05:49.076Z,1.65
2022-11-13T01:08:16.520Z,1.41
2022-11-13T01:10:53.195Z,1.51
2022-11-13T01:13:20.830Z,1.39
2022-11-13T01:15:47.566Z,1.58
2022-11-13T01:18:14.297Z,1.61
2022-11-13T01:20:41.377Z,1.50
2022-11-13T01:23:08.156Z,1.40
2022-11-13T01:25:34.835Z,1.34
2022-11-13T01:28:01.517Z,1.29
2022-11-13T01:30:28.184Z,1.39
2022-11-13T01:32:54.896Z,1.35
2022-11-13T01:35:21.536Z,1.53
2022-11-13T01:37:48.238Z,1.57
2022-11-13T01:40:15.056Z,1.61
2022-11-13T01:42:41.747Z,1.65
2022-11-13T01:45:45.524Z,1.62
2022-11-13T01:48:12.835Z,1.55
2022-11-13T01:50:39.749Z,1.57
2022-11-13T01:53:06.877Z,1.41
2022-11-13T01:55:33.614Z,1.35
2022-11-13T01:58:00.911Z,1.38
2022-11-13T02:00:27.677Z,1.54
2022-11-13T02:02:54.437Z,1.43
2022-11-13T02:05:21.095Z,1.40
2022-11-13T02:07:47.778Z,1.37
2022-11-13T02:10:14.505Z,1.32
2022-11-13T02:12:43.515Z,1.25
2022-11-13T02:15:10.664Z,1.22
2022-11-13T02:17:47.466Z,1.27
2022-11-13T02:20:14.634Z,1.26
2022-11-13T02:23:00.110Z,1.30
2022-11-13T02:25:28.073Z,1.31
2022-11-13T02:27:54.837Z,1.25
2022-11-13T02:30:27.741Z,1.32
2022-11-13T02:32:56.299Z,1.28
2022-11-13T02:35:36.959Z,1.21
2022-11-13T02:38:05.860Z,1.23
2022-11-13T02:40:34.195Z,1.23
2022-11-13T02:43:01.172Z,1.26
2022-11-13T02:45:27.904Z,1.16
2022-11-13T02:47:54.661Z,1.18
2022-11-13T02:50:21.378Z,1.14
2022-11-13T02:52:48.235Z,1.26
2022-11-13T02:55:15.004Z,1.14
2022-11-13T02:57:41.695Z,1.12
2022-11-13T03:00:13.508Z,1.10
2022-11-13T03:02:40.906Z,1.05
2022-11-13T03:05:13.357Z,1.08
2022-11-13T03:07:41.127Z,1.22
2022-11-13T03:10:08.796Z,1.23
2022-11-13T03:12:35.473Z,1.26
2022-11-13T03:15:02.464Z,1.22
2022-11-13T03:17:31.359Z,1.18
2022-11-13T03:19:58.074Z,1.16
2022-11-13T03:22:24.727Z,1.19
2022-11-13T03:24:51.466Z,1.18
2022-11-13T03:27:18.296Z,1.10
2022-11-13T03:29:44.996Z,1.04
2022-11-13T03:32:11.695Z,1.07
2022-11-13T03:34:39.336Z,1.03
2022-11-13T03:37:06.105Z,1.07
2022-11-13T03:39:32.775Z,0.98
2022-11-13T03:41:59.463Z,1.08
2022-11-13T03:44:26.176Z,1.04
2022-11-13T03:46:52.923Z,1.07
2022-11-13T03:49:19.676Z,0.96
2022-11-13T03:51:46.783Z,0.91
2022-11-13T03:54:13.463Z,0.86
2022-11-13T03:56:40.196Z,0.77
2022-11-13T03:59:06.936Z,0.78
2022-11-13T04:01:33.830Z,0.77
2022-11-13T04:04:00.607Z,0.79
2022-11-13T04:06:27.295Z,0.75
2022-11-13T04:08:54.195Z,0.73
2022-11-13T04:11:20.913Z,0.71
2022-11-13T04:13:47.655Z,0.81
2022-11-13T04:16:14.376Z,0.77
2022-11-13T04:18:41.055Z,0.83
2022-11-13T04:21:07.763Z,0.83
2022-11-13T04:23:34.489Z,0.82
2022-11-13T04:26:01.325Z,0.86
2022-11-13T04:28:28.264Z,0.74
2022-11-13T04:30:55.706Z,0.75
2022-11-13T04:33:22.734Z,0.75
2022-11-13T04:35:49.736Z,0.74
2022-11-13T04:38:16.534Z,0.76
2022-11-13T04:40:43.685Z,0.84
2022-11-13T04:43:10.427Z,0.69
2022-11-13T04:45:37.364Z,0.71
2022-11-13T04:48:04.243Z,0.60
2022-11-13T04:50:31.420Z,0.52
2022-11-13T04:52:58.124Z,0.47
2022-11-13T04:55:24.756Z,0.40
2022-11-13T04:57:55.596Z,0.31
2022-11-13T05:00:22.864Z,0.31
2022-11-13T05:02:49.567Z,0.24
2022-11-13T05:05:16.703Z,0.26
2022-11-13T05:07:43.388Z,0.25
2022-11-13T05:10:10.372Z,0.18
2022-11-13T05:12:37.117Z,0.17
2022-11-13T05:15:04.494Z,0.19
2022-11-13T05:17:31.254Z,0.29
2022-11-13T05:19:57.905Z,0.32
2022-11-13T05:22:24.528Z,0.29
2022-11-13T05:24:51.173Z,0.43
2022-11-13T05:27:18.064Z,0.47
2022-11-13T05:29:45.016Z,0.25
2022-11-13T05:32:11.804Z,0.22
2022-11-13T05:34:38.408Z,0.17
2022-11-13T05:37:04.978Z,0.16
2022-11-13T05:39:31.553Z,0.20
2022-11-13T05:41:58.188Z,0.15
2022-11-13T05:44:24.769Z,0.19
2022-11-13T05:46:51.420Z,0.25
2022-11-13T05:49:18.170Z,0.27
2022-11-13T05:51:44.890Z,0.27
2022-11-13T05:54:11.486Z,0.34
2022-11-13T05:56:38.366Z,0.45
2022-11-13T05:59:05.334Z,0.51
2022-11-13T06:01:39.135Z,0.46
2022-11-13T06:04:07.155Z,0.39
2022-11-13T06:06:34.494Z,0.25
2022-11-13T06:09:03.295Z,0.24
2022-11-13T06:11:30.733Z,0.21
2022-11-13T06:13:58.390Z,0.18
2022-11-13T06:16:30.481Z,0.33
2022-11-13T06:18:59.445Z,0.34
2022-11-13T06:21:29.935Z,0.39
2022-11-13T06:23:58.342Z,0.43
2022-11-13T06:26:27.943Z,0.41
2022-11-13T06:28:54.652Z,0.48
2022-11-13T06:31:23.626Z,0.36
2022-11-13T06:33:50.254Z,0.31
2022-11-13T06:36:22.113Z,0.14
2022-11-13T06:38:49.160Z,0.12
2022-11-13T06:41:17.307Z,0.04
2022-11-13T06:43:44.498Z,0.19
2022-11-13T06:46:19.343Z,0.26
2022-11-13T06:48:46.389Z,0.27
2022-11-13T06:51:28.511Z,0.25
2022-11-13T06:53:55.224Z,0.24
2022-11-13T06:56:22.118Z,0.45
2022-11-13T06:58:49.058Z,0.53
2022-11-13T07:01:17.929Z,0.41
2022-11-13T07:03:45.004Z,0.61
2022-11-13T07:06:17.662Z,0.43
2022-11-13T07:08:45.038Z,0.64
2022-11-13T07:11:14.602Z,1.12
2022-11-13T07:13:41.718Z,0.85
2022-11-13T07:16:16.879Z,1.07
2022-11-13T07:18:43.892Z,0.86
2022-11-13T07:21:12.134Z,0.90
2022-11-13T07:23:43.629Z,1.30
2022-11-13T07:26:13.803Z,1.65
2022-11-13T07:28:40.463Z,1.61
2022-11-13T07:31:07.611Z,2.03
2022-11-13T07:33:34.546Z,2.60
2022-11-13T07:36:01.305Z,2.96
2022-11-13T07:38:28.473Z,3.57
2022-11-13T07:40:58.068Z,4.21
2022-11-13T07:43:24.842Z,4.34
2022-11-13T07:45:54.860Z,4.55
2022-11-13T07:48:24.865Z,4.86
2022-11-13T07:50:51.595Z,5.43
2022-11-13T07:53:18.967Z,5.98
2022-11-13T07:55:45.705Z,6.42
2022-11-13T07:58:12.976Z,6.69
2022-11-13T08:00:40.006Z,6.93
2022-11-13T08:03:08.443Z,4.84
2022-11-13T08:05:35.316Z,4.21
2022-11-13T08:08:02.327Z,4.64
2022-11-13T08:10:29.436Z,4.62
2022-11-13T08:13:01.051Z,5.18
2022-11-13T08:15:29.166Z,4.75
2022-11-13T08:18:00.689Z,5.44
2022-11-13T08:20:29.207Z,6.11
2022-11-13T08:23:00.696Z,5.46
2022-11-13T08:25:28.886Z,4.70
2022-11-13T08:27:55.885Z,5.02
2022-11-13T08:30:24.399Z,4.79
2022-11-13T08:32:51.778Z,4.66
2022-11-13T08:35:20.707Z,5.19
2022-11-13T08:37:48.765Z,5.30
2022-11-13T08:40:15.817Z,5.84
2022-11-13T08:42:42.438Z,6.57
2022-11-13T08:45:10.047Z,6.68
2022-11-13T08:47:37.120Z,6.38
2022-11-13T08:50:05.256Z,6.02
2022-11-13T08:52:32.137Z,6.29
2022-11-13T08:54:58.832Z,7.18
2022-11-13T08:57:25.555Z,6.55
2022-11-13T08:59:52.216Z,7.49
2022-11-13T09:02:18.995Z,7.92
2022-11-13T09:04:45.657Z,8.00
2022-11-13T09:07:12.493Z,7.80
2022-11-13T09:09:39.285Z,7.83
2022-11-13T09:12:06.247Z,8.53
2022-11-13T09:14:32.956Z,8.47
2022-11-13T09:16:59.707Z,7.57
2022-11-13T09:19:27.706Z,8.39
2022-11-13T09:21:54.451Z,8.41
2022-11-13T09:24:21.155Z,8.81
2022-11-13T09:26:47.906Z,8.91
2022-11-13T09:29:14.607Z,9.11
2022-11-13T09:31:41.518Z,8.84
2022-11-13T09:34:08.947Z,9.98
2022-11-13T09:36:36.331Z,9.63
2022-11-13T09:39:04.767Z,9.83
2022-11-13T09:42:02.876Z,11.10
2022-11-13T09:44:46.474Z,11.88
2022-11-13T09:47:21.425Z,11.82
2022-11-13T09:50:24.374Z,11.05
2022-11-13T09:52:52.206Z,12.46
2022-11-13T09:55:21.180Z,11.81
2022-11-13T09:57:51.919Z,11.38
2022-11-13T10:00:20.664Z,11.79
2022-11-13T10:02:56.516Z,12.00
2022-11-13T10:05:42.747Z,13.46
2022-11-13T10:08:44.335Z,13.90
2022-11-13T10:11:35.854Z,13.18
2022-11-13T10:14:17.360Z,12.45
2022-11-13T10:16:59.754Z,12.73
2022-11-13T10:19:26.376Z,13.87
2022-11-13T10:22:26.529Z,13.74
2022-11-13T10:24:52.400Z,14.81
2022-11-13T10:27:19.199Z,15.02
2022-11-13T10:29:49.174Z,14.78
2022-11-13T10:32:24.777Z,14.27
2022-11-13T10:34:59.813Z,14.01
2022-11-13T10:37:41.774Z,13.69
2022-11-13T10:40:08.835Z,13.94
2022-11-13T10:42:41.015Z,14.16
2022-11-13T10:45:20.036Z,13.64
2022-11-13T10:48:03.711Z,13.91
2022-11-13T10:50:32.483Z,13.23
2022-11-13T10:52:59.472Z,13.74
2022-11-13T10:55:38.766Z,13.33
2022-11-13T10:58:16.479Z,14.09
2022-11-13T11:00:44.974Z,14.10
2022-11-13T11:03:23.008Z,13.94
2022-11-13T11:06:00.246Z,13.91
2022-11-13T11:08:35.319Z,14.11
2022-11-13T11:11:32.177Z,14.45
2022-11-13T11:14:38.644Z,14.12
2022-11-13T11:17:05.940Z,14.74
2022-11-13T11:19:37.363Z,14.08
2022-11-13T11:22:13.247Z,14.21
2022-11-13T11:24:49.516Z,15.14
2022-11-13T11:27:25.607Z,14.74
2022-11-13T11:30:02.556Z,14.65
2022-11-13T11:32:46.697Z,15.01
2022-11-13T11:35:17.957Z,14.92
2022-11-13T11:37:54.615Z,15.00
2022-11-13T11:40:31.029Z,15.10
2022-11-13T11:43:27.637Z,15.24
2022-11-13T11:45:54.400Z,15.78
2022-11-13T11:48:28.166Z,15.61
2022-11-13T11:51:07.303Z,15.83
2022-11-13T11:53:50.808Z,15.35
2022-11-13T11:56:46.838Z,16.09
2022-11-13T11:59:31.388Z,15.95
2022-11-13T12:02:30.785Z,16.44
2022-11-13T12:05:24.079Z,16.74
2022-11-13T12:08:11.176Z,16.43
2022-11-13T12:10:56.803Z,16.59
2022-11-13T12:13:28.448Z,16.19
2022-11-13T12:16:14.977Z,16.61
2022-11-13T12:19:12.456Z,16.58
2022-11-13T12:22:04.184Z,15.95
2022-11-13T12:24:42.948Z,16.15
2022-11-13T12:27:33.334Z,15.82
2022-11-13T12:30:13.238Z,15.70
2022-11-13T12:33:02.898Z,15.69
2022-11-13T12:35:29.994Z,15.32
2022-11-13T12:38:06.278Z,15.45
2022-11-13T12:41:05.074Z,15.41
2022-11-13T12:43:37.944Z,15.45
2022-11-13T12:46:09.650Z,15.40
2022-11-13T12:48:44.650Z,15.34
2022-11-13T12:51:14.590Z,14.93
2022-11-13T12:53:48.388Z,14.96
2022-11-13T12:56:23.865Z,14.86
2022-11-13T13:02:31.231Z,14.71
2022-11-13T13:05:11.011Z,14.56
2022-11-13T13:07:55.674Z,14.48
2022-11-13T13:10:53.235Z,14.44
2022-11-13T13:13:47.376Z,14.52
2022-11-13T13:16:22.225Z,14.38
2022-11-13T13:18:48.971Z,14.50
2022-11-13T13:21:18.009Z,14.01
2022-11-13T13:23:49.345Z,14.02
2022-11-13T13:26:27.920Z,14.40
2022-11-13T13:28:56.435Z,14.54
2022-11-13T13:31:41.337Z,14.74
2022-11-13T13:34:16.853Z,14.49
2022-11-13T13:37:03.749Z,14.60
2022-11-13T13:40:15.601Z,14.41
2022-11-13T13:43:20.798Z,15.03
2022-11-13T13:45:53.295Z,15.08
2022-11-13T13:48:22.022Z,14.99
2022-11-13T13:50:49.792Z,14.88
2022-11-13T13:53:19.798Z,14.51
2022-11-13T13:55:53.117Z,14.50
2022-11-13T13:58:25.556Z,14.30
2022-11-13T14:01:20.352Z,13.87
2022-11-13T14:03:47.211Z,13.84
2022-11-13T14:06:24.065Z,13.98
2022-11-13T14:08:50.868Z,13.59
2022-11-13T14:11:29.836Z,12.90
2022-11-13T14:14:08.024Z,12.54
2022-11-13T14:16:34.786Z,12.32
2022-11-13T14:19:05.526Z,11.73
2022-11-13T14:21:32.587Z,11.91
2022-11-13T14:24:01.604Z,11.99
2022-11-13T14:26:29.384Z,11.72
2022-11-13T14:29:01.217Z,11.82
2022-11-13T14:31:32.557Z,11.94
2022-11-13T14:34:10.000Z,11.93
2022-11-13T14:36:37.325Z,12.13
2022-11-13T14:39:04.434Z,12.22
2022-11-13T14:41:41.104Z,12.27
2022-11-13T14:44:10.995Z,12.18
2022-11-13T14:46:40.196Z,12.33
2022-11-13T14:49:28.045Z,12.26
2022-11-13T14:51:56.097Z,11.83
2022-11-13T14:55:00.199Z,11.37
2022-11-13T14:57:20.889Z,10.80
2022-11-13T14:59:47.524Z,10.80
2022-11-13T15:02:14.375Z,10.31
2022-11-13T15:04:41.084Z,10.38
2022-11-13T15:07:41.116Z,10.02
2022-11-13T15:10:15.558Z,9.86
2022-11-13T15:12:43.535Z,9.86
2022-11-13T15:15:19.187Z,9.48
2022-11-13T15:17:47.276Z,9.25
2022-11-13T15:20:27.735Z,9.48
2022-11-13T15:22:54.917Z,9.30
2022-11-13T15:25:23.115Z,9.05
2022-11-13T15:27:50.031Z,9.05
2022-11-13T15:30:17.215Z,9.06
2022-11-13T15:32:44.543Z,8.85
2022-11-13T15:35:17.576Z,8.88
2022-11-13T15:37:45.439Z,8.66
2022-11-13T15:40:13.746Z,8.52
2022-11-13T15:42:41.029Z,8.46
2022-11-13T15:45:14.137Z,8.56
2022-11-13T15:47:41.416Z,8.29
2022-11-13T15:50:16.398Z,8.03
2022-11-13T15:52:46.617Z,8.09
2022-11-13T15:55:32.386Z,8.07
2022-11-13T15:57:59.566Z,8.55
2022-11-13T16:00:28.237Z,8.66
2022-11-13T16:02:56.544Z,8.20
2022-11-13T16:05:25.685Z,8.63
2022-11-13T16:07:53.898Z,8.27
2022-11-13T16:10:21.991Z,8.14
2022-11-13T16:12:48.841Z,8.20
2022-11-13T16:15:19.816Z,8.17
2022-11-13T16:17:49.935Z,7.90
2022-11-13T16:20:17.955Z,7.72
2022-11-13T16:22:45.268Z,7.57
2022-11-13T16:25:14.725Z,7.68
2022-11-13T16:27:41.765Z,7.50
2022-11-13T16:30:26.648Z,7.36
2022-11-13T16:32:53.249Z,7.17
2022-11-13T16:35:20.688Z,7.21
2022-11-13T16:37:47.397Z,7.10
2022-11-13T16:40:23.616Z,7.18
2022-11-13T16:42:50.505Z,6.93
2022-11-13T16:45:17.587Z,7.00
2022-11-13T16:47:44.577Z,7.20
2022-11-13T16:50:24.088Z,6.95
2022-11-13T16:52:51.151Z,7.08
2022-11-13T16:55:17.886Z,6.83
2022-11-13T16:57:44.785Z,6.72
2022-11-13T17:00:14.583Z,6.69
2022-11-13T17:02:41.390Z,6.72
2022-11-13T17:05:12.549Z,6.95
2022-11-13T17:07:39.265Z,6.92
2022-11-13T17:12:54.051Z,6.50
2022-11-13T17:15:21.484Z,6.48
2022-11-13T17:17:48.378Z,6.46
2022-11-13T17:20:18.345Z,6.57
2022-11-13T17:22:48.611Z,6.65
2022-11-13T17:25:20.733Z,6.54
2022-11-13T17:27:47.534Z,6.53
2022-11-13T17:30:14.673Z,6.47
2022-11-13T17:32:41.492Z,6.31
2022-11-13T17:35:09.278Z,6.48
2022-11-13T17:37:35.964Z,6.68
2022-11-13T17:40:02.545Z,6.63
2022-11-13T17:42:29.252Z,6.72
2022-11-13T17:44:56.021Z,6.86
2022-11-13T17:47:22.727Z,6.59
2022-11-13T17:49:49.520Z,6.49
2022-11-13T17:52:16.302Z,6.29
2022-11-13T17:54:43.084Z,6.28
2022-11-13T17:57:10.483Z,6.27
2022-11-13T17:59:37.133Z,6.10
2022-11-13T18:02:04.133Z,6.28
2022-11-13T18:04:30.876Z,6.00
2022-11-13T18:06:58.169Z,5.89
2022-11-13T18:09:24.818Z,5.83
2022-11-13T18:11:51.594Z,5.80
2022-11-13T18:14:19.083Z,6.18
2022-11-13T18:16:45.888Z,5.61
2022-11-13T18:19:13.276Z,5.71
2022-11-13T18:21:40.719Z,6.05
2022-11-13T18:24:14.608Z,6.20
2022-11-13T18:26:41.603Z,6.14
2022-11-13T18:29:08.747Z,6.39
2022-11-13T18:31:35.588Z,6.43
2022-11-13T18:34:04.315Z,5.99
2022-11-13T18:36:35.066Z,5.76
2022-11-13T18:39:03.252Z,5.82
2022-11-13T18:41:30.846Z,6.32
2022-11-13T18:43:57.622Z,5.96
2022-11-13T18:46:24.454Z,5.74
2022-11-13T18:48:51.615Z,5.65
2022-11-13T18:51:24.370Z,5.69
2022-11-13T18:53:52.124Z,5.56
2022-11-13T18:56:27.970Z,5.64
2022-11-13T18:58:56.087Z,5.54
2022-11-13T19:01:29.578Z,5.47
2022-11-13T19:04:21.751Z,5.45
2022-11-13T19:06:46.493Z,5.34
2022-11-13T19:09:15.523Z,5.26
2022-11-13T19:11:43.008Z,5.25
2022-11-13T19:14:11.237Z,5.25
2022-11-13T19:16:38.811Z,5.15
2022-11-13T19:19:08.097Z,5.07
2022-11-13T19:21:36.227Z,5.25
2022-11-13T19:24:03.429Z,5.35
2022-11-13T19:26:30.450Z,5.35
2022-11-13T19:28:57.448Z,5.32
2022-11-13T19:31:26.255Z,5.25
2022-11-13T19:34:04.014Z,5.22
2022-11-13T19:36:32.033Z,5.34
2022-11-13T19:38:59.215Z,5.26
2022-11-13T19:41:27.621Z,5.18
2022-11-13T19:43:54.938Z,5.08
2022-11-13T19:46:22.126Z,5.12
2022-11-13T19:48:49.577Z,5.26
2022-11-13T19:51:22.972Z,5.27
2022-11-13T19:53:54.015Z,5.23
2022-11-13T19:56:22.332Z,5.31
2022-11-13T19:58:50.699Z,5.39
2022-11-13T20:01:20.363Z,5.38
2022-11-13T20:03:47.025Z,5.40
2022-11-13T20:06:17.978Z,5.26
2022-11-13T20:08:45.298Z,5.34
2022-11-13T20:11:15.071Z,5.48
2022-11-13T20:13:42.672Z,5.56
2022-11-13T20:16:11.937Z,5.64
2022-11-13T20:18:38.838Z,5.82
2022-11-13T20:21:05.901Z,5.84
2022-11-13T20:23:32.915Z,5.70
2022-11-13T20:26:01.930Z,5.57
2022-11-13T20:28:30.249Z,5.40
2022-11-13T20:31:30.068Z,5.40
2022-11-13T20:33:57.390Z,5.23
2022-11-13T20:36:24.718Z,5.18
2022-11-13T20:38:53.341Z,5.18
2022-11-13T20:41:24.135Z,5.11
2022-11-13T20:43:51.953Z,5.32
2022-11-13T20:46:20.718Z,5.62
2022-11-13T20:48:47.835Z,5.42
2022-11-13T20:51:22.653Z,5.46
2022-11-13T20:53:49.619Z,5.68
2022-11-13T20:56:17.292Z,5.83
2022-11-13T20:58:44.046Z,5.84
2022-11-13T21:01:15.716Z,5.87
2022-11-13T21:03:44.457Z,5.92
2022-11-13T21:06:12.916Z,5.87
2022-11-13T21:08:39.600Z,5.85
2022-11-13T21:11:07.635Z,5.76
2022-11-13T21:13:34.904Z,5.78
2022-11-13T21:16:06.238Z,5.73
2022-11-13T21:18:32.916Z,5.58
2022-11-13T21:21:10.366Z,5.54
2022-11-13T21:23:37.398Z,5.58
2022-11-13T21:26:06.143Z,5.67
2022-11-13T21:28:33.971Z,5.72
2022-11-13T21:31:06.054Z,5.82
2022-11-13T21:33:37.250Z,5.84
2022-11-13T21:36:12.621Z,5.81
2022-11-13T21:38:40.177Z,5.64
2022-11-13T21:41:26.892Z,5.69
2022-11-13T21:43:58.597Z,5.84
2022-11-13T21:46:32.930Z,5.96
2022-11-13T21:49:02.530Z,6.00
2022-11-13T21:51:30.286Z,5.99
2022-11-13T21:53:57.299Z,5.82
2022-11-13T21:56:25.067Z,5.74
2022-11-13T21:58:51.663Z,5.57
2022-11-13T22:01:18.731Z,5.66
2022-11-13T22:03:45.363Z,5.65
2022-11-13T22:06:16.526Z,5.75
2022-11-13T22:08:44.528Z,5.88
2022-11-13T22:11:11.870Z,5.96
2022-11-13T22:13:38.560Z,5.96
2022-11-13T22:16:07.269Z,5.98
2022-11-13T22:18:34.363Z,5.97
2022-11-13T22:21:06.068Z,6.09
2022-11-13T22:23:33.463Z,6.19
2022-11-13T22:26:05.507Z,6.24
2022-11-13T22:28:33.510Z,6.30
2022-11-13T22:31:00.550Z,6.23
2022-11-13T22:33:31.253Z,6.20
2022-11-13T22:36:10.514Z,6.24
2022-11-13T22:38:37.815Z,6.04
2022-11-13T22:41:06.155Z,6.01
2022-11-13T22:43:38.066Z,6.04
2022-11-13T22:46:06.885Z,5.95
2022-11-13T22:48:35.110Z,5.93
2022-11-13T22:51:29.328Z,5.95
2022-11-13T22:54:01.031Z,5.98
2022-11-13T22:56:30.199Z,6.03
2022-11-13T22:58:58.819Z,5.95
2022-11-13T23:01:30.560Z,5.87
2022-11-13T23:03:58.467Z,5.93
2022-11-13T23:06:27.016Z,6.18
2022-11-13T23:08:54.091Z,6.57
2022-11-13T23:11:23.139Z,6.82
2022-11-13T23:13:51.881Z,7.21
2022-11-13T23:16:19.466Z,7.06
2022-11-13T23:18:46.961Z,6.83
2022-11-13T23:21:14.415Z,6.93
2022-11-13T23:23:41.652Z,6.88
2022-11-13T23:26:09.488Z,6.99
2022-11-13T23:28:36.986Z,6.78
2022-11-13T23:31:05.511Z,6.67
2022-11-13T23:33:32.422Z,6.70
2022-11-13T23:35:59.528Z,6.78
2022-11-13T23:38:26.162Z,6.70
2022-11-13T23:40:54.686Z,6.87
2022-11-13T23:43:21.824Z,6.65
2022-11-13T23:45:48.470Z,6.63
2022-11-13T23:48:15.314Z,6.56
2022-11-13T23:50:41.895Z,6.59
2022-11-13T23:53:08.889Z,6.55
2022-11-13T23:55:38.220Z,6.58
2022-11-13T23:58:06.965Z,6.68
